sensor_id;sensor_type;location;lat;lon;timestamp;P1;durP1;ratioP1;P2;durP2;ratioP2
13973;SDS011;7060;43.770;4.008;2023-08-17T00:00:57;4.90;;;2.60;;
13973;SDS011;7060;43.770;4.008;2023-08-17T00:03:26;3.30;;;2.30;;
13973;SDS011;7060;43.770;4.008;2023-08-17T00:05:55;6.10;;;2.20;;
13973;SDS011;7060;43.770;4.008;2023-08-17T00:08:24;2.90;;;2.20;;
13973;SDS011;7060;43.770;4.008;2023-08-17T00:10:54;2.50;;;2.30;;
13973;SDS011;7060;43.770;4.008;2023-08-17T00:13:23;3.10;;;2.60;;
13973;SDS011;7060;43.770;4.008;2023-08-17T00:15:52;3.90;;;2.77;;
13973;SDS011;7060;43.770;4.008;2023-08-17T00:18:21;3.50;;;2.20;;
13973;SDS011;7060;43.770;4.008;2023-08-17T00:20:49;4.20;;;2.80;;
13973;SDS011;7060;43.770;4.008;2023-08-17T00:23:18;2.90;;;2.60;;
13973;SDS011;7060;43.770;4.008;2023-08-17T00:25:48;5.00;;;2.47;;
13973;SDS011;7060;43.770;4.008;2023-08-17T00:28:18;2.60;;;2.40;;
13973;SDS011;7060;43.770;4.008;2023-08-17T00:30:47;11.70;;;2.90;;
13973;SDS011;7060;43.770;4.008;2023-08-17T00:33:16;17.33;;;3.87;;
13973;SDS011;7060;43.770;4.008;2023-08-17T00:35:46;2.97;;;2.50;;
13973;SDS011;7060;43.770;4.008;2023-08-17T00:38:15;4.10;;;2.93;;
13973;SDS011;7060;43.770;4.008;2023-08-17T00:40:44;4.80;;;2.77;;
13973;SDS011;7060;43.770;4.008;2023-08-17T00:43:13;4.90;;;3.00;;
13973;SDS011;7060;43.770;4.008;2023-08-17T00:45:43;4.30;;;2.43;;
13973;SDS011;7060;43.770;4.008;2023-08-17T00:48:14;6.27;;;2.63;;
13973;SDS011;7060;43.770;4.008;2023-08-17T00:50:43;4.27;;;2.50;;
13973;SDS011;7060;43.770;4.008;2023-08-17T00:53:15;4.10;;;2.47;;
13973;SDS011;7060;43.770;4.008;2023-08-17T00:55:46;2.90;;;2.60;;
13973;SDS011;7060;43.770;4.008;2023-08-17T00:58:15;4.33;;;2.70;;
13973;SDS011;7060;43.770;4.008;2023-08-17T01:00:46;4.87;;;2.30;;
13973;SDS011;7060;43.770;4.008;2023-08-17T01:03:16;2.93;;;2.23;;
13973;SDS011;7060;43.770;4.008;2023-08-17T01:05:45;3.50;;;2.70;;
13973;SDS011;7060;43.770;4.008;2023-08-17T01:08:15;3.13;;;2.60;;
13973;SDS011;7060;43.770;4.008;2023-08-17T01:10:46;3.90;;;2.53;;
13973;SDS011;7060;43.770;4.008;2023-08-17T01:13:21;4.50;;;2.83;;
13973;SDS011;7060;43.770;4.008;2023-08-17T01:16:01;6.87;;;2.13;;
13973;SDS011;7060;43.770;4.008;2023-08-17T01:18:34;2.67;;;2.47;;
13973;SDS011;7060;43.770;4.008;2023-08-17T01:21:06;4.47;;;2.70;;
13973;SDS011;7060;43.770;4.008;2023-08-17T01:23:38;4.83;;;2.70;;
13973;SDS011;7060;43.770;4.008;2023-08-17T01:26:07;3.70;;;2.43;;
13973;SDS011;7060;43.770;4.008;2023-08-17T01:28:36;3.43;;;2.70;;
13973;SDS011;7060;43.770;4.008;2023-08-17T01:31:08;2.60;;;2.40;;
13973;SDS011;7060;43.770;4.008;2023-08-17T01:33:42;4.00;;;3.10;;
13973;SDS011;7060;43.770;4.008;2023-08-17T01:36:17;7.10;;;2.73;;
13973;SDS011;7060;43.770;4.008;2023-08-17T01:38:50;4.63;;;2.60;;
13973;SDS011;7060;43.770;4.008;2023-08-17T01:41:22;2.87;;;2.23;;
13973;SDS011;7060;43.770;4.008;2023-08-17T01:43:54;5.37;;;3.00;;
13973;SDS011;7060;43.770;4.008;2023-08-17T01:46:24;5.57;;;3.10;;
13973;SDS011;7060;43.770;4.008;2023-08-17T01:48:58;6.37;;;2.60;;
13973;SDS011;7060;43.770;4.008;2023-08-17T01:51:29;4.80;;;2.90;;
13973;SDS011;7060;43.770;4.008;2023-08-17T01:53:59;6.77;;;2.70;;
13973;SDS011;7060;43.770;4.008;2023-08-17T01:56:28;4.43;;;2.80;;
13973;SDS011;7060;43.770;4.008;2023-08-17T01:58:57;2.53;;;2.23;;
13973;SDS011;7060;43.770;4.008;2023-08-17T02:01:26;3.43;;;2.70;;
13973;SDS011;7060;43.770;4.008;2023-08-17T02:03:55;3.97;;;2.77;;
13973;SDS011;7060;43.770;4.008;2023-08-17T02:06:23;5.27;;;2.33;;
13973;SDS011;7060;43.770;4.008;2023-08-17T02:08:52;4.13;;;2.33;;
13973;SDS011;7060;43.770;4.008;2023-08-17T02:11:24;3.57;;;2.60;;
13973;SDS011;7060;43.770;4.008;2023-08-17T02:13:54;6.00;;;2.60;;
13973;SDS011;7060;43.770;4.008;2023-08-17T02:16:23;3.43;;;2.50;;
13973;SDS011;7060;43.770;4.008;2023-08-17T02:18:51;3.50;;;2.67;;
13973;SDS011;7060;43.770;4.008;2023-08-17T02:21:20;5.33;;;2.93;;
13973;SDS011;7060;43.770;4.008;2023-08-17T02:23:49;4.80;;;2.83;;
13973;SDS011;7060;43.770;4.008;2023-08-17T02:26:20;3.77;;;2.50;;
13973;SDS011;7060;43.770;4.008;2023-08-17T02:28:50;3.73;;;2.87;;
13973;SDS011;7060;43.770;4.008;2023-08-17T02:31:19;4.73;;;3.03;;
13973;SDS011;7060;43.770;4.008;2023-08-17T02:33:50;3.30;;;2.90;;
13973;SDS011;7060;43.770;4.008;2023-08-17T02:36:19;4.97;;;3.30;;
13973;SDS011;7060;43.770;4.008;2023-08-17T02:38:48;6.30;;;3.30;;
13973;SDS011;7060;43.770;4.008;2023-08-17T02:41:16;4.97;;;3.07;;
13973;SDS011;7060;43.770;4.008;2023-08-17T02:43:45;2.83;;;2.53;;
13973;SDS011;7060;43.770;4.008;2023-08-17T02:46:15;4.83;;;2.90;;
13973;SDS011;7060;43.770;4.008;2023-08-17T02:48:44;3.33;;;2.70;;
13973;SDS011;7060;43.770;4.008;2023-08-17T02:51:14;3.23;;;2.93;;
13973;SDS011;7060;43.770;4.008;2023-08-17T02:53:42;4.50;;;2.60;;
13973;SDS011;7060;43.770;4.008;2023-08-17T02:56:11;4.83;;;2.73;;
13973;SDS011;7060;43.770;4.008;2023-08-17T02:58:40;4.47;;;2.90;;
13973;SDS011;7060;43.770;4.008;2023-08-17T03:01:09;3.10;;;2.80;;
13973;SDS011;7060;43.770;4.008;2023-08-17T03:03:40;3.93;;;2.90;;
13973;SDS011;7060;43.770;4.008;2023-08-17T03:06:10;3.13;;;2.93;;
13973;SDS011;7060;43.770;4.008;2023-08-17T03:08:39;2.83;;;2.63;;
13973;SDS011;7060;43.770;4.008;2023-08-17T03:11:10;3.57;;;3.03;;
13973;SDS011;7060;43.770;4.008;2023-08-17T03:13:40;2.90;;;2.67;;
13973;SDS011;7060;43.770;4.008;2023-08-17T03:16:09;4.23;;;3.23;;
13973;SDS011;7060;43.770;4.008;2023-08-17T03:18:40;3.30;;;3.00;;
13973;SDS011;7060;43.770;4.008;2023-08-17T03:21:12;3.80;;;3.30;;
13973;SDS011;7060;43.770;4.008;2023-08-17T03:23:40;5.47;;;3.40;;
13973;SDS011;7060;43.770;4.008;2023-08-17T03:26:09;2.63;;;2.43;;
13973;SDS011;7060;43.770;4.008;2023-08-17T03:28:38;6.77;;;2.63;;
13973;SDS011;7060;43.770;4.008;2023-08-17T03:31:07;6.13;;;3.37;;
13973;SDS011;7060;43.770;4.008;2023-08-17T03:33:37;2.67;;;2.47;;
13973;SDS011;7060;43.770;4.008;2023-08-17T03:36:09;4.37;;;2.83;;
13973;SDS011;7060;43.770;4.008;2023-08-17T03:38:38;2.83;;;2.53;;
13973;SDS011;7060;43.770;4.008;2023-08-17T03:41:07;3.50;;;2.80;;
13973;SDS011;7060;43.770;4.008;2023-08-17T03:43:36;4.57;;;3.10;;
13973;SDS011;7060;43.770;4.008;2023-08-17T03:46:04;4.07;;;3.10;;
13973;SDS011;7060;43.770;4.008;2023-08-17T03:48:34;4.43;;;3.17;;
13973;SDS011;7060;43.770;4.008;2023-08-17T03:51:05;3.27;;;2.73;;
13973;SDS011;7060;43.770;4.008;2023-08-17T03:53:35;4.43;;;3.97;;
13973;SDS011;7060;43.770;4.008;2023-08-17T03:56:04;3.57;;;3.03;;
13973;SDS011;7060;43.770;4.008;2023-08-17T03:58:33;4.10;;;3.13;;
13973;SDS011;7060;43.770;4.008;2023-08-17T04:01:02;5.73;;;3.40;;
13973;SDS011;7060;43.770;4.008;2023-08-17T04:03:34;4.77;;;3.43;;
13973;SDS011;7060;43.770;4.008;2023-08-17T04:06:05;5.83;;;2.83;;
13973;SDS011;7060;43.770;4.008;2023-08-17T04:08:38;3.33;;;3.00;;
13973;SDS011;7060;43.770;4.008;2023-08-17T04:11:07;3.87;;;2.80;;
13973;SDS011;7060;43.770;4.008;2023-08-17T04:13:36;7.03;;;2.93;;
13973;SDS011;7060;43.770;4.008;2023-08-17T04:16:05;3.73;;;3.10;;
13973;SDS011;7060;43.770;4.008;2023-08-17T04:18:33;3.40;;;3.10;;
13973;SDS011;7060;43.770;4.008;2023-08-17T04:21:02;4.40;;;2.87;;
13973;SDS011;7060;43.770;4.008;2023-08-17T04:23:31;5.47;;;3.43;;
13973;SDS011;7060;43.770;4.008;2023-08-17T04:26:03;3.97;;;3.10;;
13973;SDS011;7060;43.770;4.008;2023-08-17T04:28:33;4.83;;;3.47;;
13973;SDS011;7060;43.770;4.008;2023-08-17T04:31:01;4.17;;;3.77;;
13973;SDS011;7060;43.770;4.008;2023-08-17T04:33:34;4.40;;;3.10;;
13973;SDS011;7060;43.770;4.008;2023-08-17T04:36:03;3.47;;;3.10;;
13973;SDS011;7060;43.770;4.008;2023-08-17T04:38:32;5.27;;;3.17;;
13973;SDS011;7060;43.770;4.008;2023-08-17T04:41:02;4.40;;;3.10;;
13973;SDS011;7060;43.770;4.008;2023-08-17T04:43:32;4.03;;;3.20;;
13973;SDS011;7060;43.770;4.008;2023-08-17T04:46:01;5.20;;;3.07;;
13973;SDS011;7060;43.770;4.008;2023-08-17T04:48:31;7.87;;;3.57;;
13973;SDS011;7060;43.770;4.008;2023-08-17T04:51:00;5.93;;;3.03;;
13973;SDS011;7060;43.770;4.008;2023-08-17T04:53:30;3.60;;;3.17;;
13973;SDS011;7060;43.770;4.008;2023-08-17T04:55:58;6.90;;;3.40;;
13973;SDS011;7060;43.770;4.008;2023-08-17T04:58:29;5.97;;;3.67;;
13973;SDS011;7060;43.770;4.008;2023-08-17T05:00:58;3.27;;;2.70;;
13973;SDS011;7060;43.770;4.008;2023-08-17T05:03:28;5.77;;;3.30;;
13973;SDS011;7060;43.770;4.008;2023-08-17T05:06:01;3.57;;;3.27;;
13973;SDS011;7060;43.770;4.008;2023-08-17T05:08:32;4.07;;;3.37;;
13973;SDS011;7060;43.770;4.008;2023-08-17T05:11:01;6.07;;;3.13;;
13973;SDS011;7060;43.770;4.008;2023-08-17T05:13:32;4.93;;;3.37;;
13973;SDS011;7060;43.770;4.008;2023-08-17T05:16:04;5.17;;;2.90;;
13973;SDS011;7060;43.770;4.008;2023-08-17T05:18:34;4.37;;;3.17;;
13973;SDS011;7060;43.770;4.008;2023-08-17T05:21:03;5.00;;;3.40;;
13973;SDS011;7060;43.770;4.008;2023-08-17T05:23:32;5.43;;;3.47;;
13973;SDS011;7060;43.770;4.008;2023-08-17T05:26:01;4.50;;;3.40;;
13973;SDS011;7060;43.770;4.008;2023-08-17T05:28:29;4.43;;;3.60;;
13973;SDS011;7060;43.770;4.008;2023-08-17T05:31:04;3.90;;;3.53;;
13973;SDS011;7060;43.770;4.008;2023-08-17T05:33:37;4.53;;;3.80;;
13973;SDS011;7060;43.770;4.008;2023-08-17T05:36:09;4.20;;;3.80;;
13973;SDS011;7060;43.770;4.008;2023-08-17T05:38:38;9.53;;;4.27;;
13973;SDS011;7060;43.770;4.008;2023-08-17T05:41:06;13.73;;;3.67;;
13973;SDS011;7060;43.770;4.008;2023-08-17T05:43:35;5.50;;;4.07;;
13973;SDS011;7060;43.770;4.008;2023-08-17T05:46:05;3.83;;;3.40;;
13973;SDS011;7060;43.770;4.008;2023-08-17T05:48:34;5.43;;;3.90;;
13973;SDS011;7060;43.770;4.008;2023-08-17T05:51:03;5.10;;;3.67;;
13973;SDS011;7060;43.770;4.008;2023-08-17T05:53:32;5.47;;;3.37;;
13973;SDS011;7060;43.770;4.008;2023-08-17T05:56:01;7.03;;;3.63;;
13973;SDS011;7060;43.770;4.008;2023-08-17T05:58:30;5.83;;;4.07;;
13973;SDS011;7060;43.770;4.008;2023-08-17T06:01:03;6.50;;;4.17;;
13973;SDS011;7060;43.770;4.008;2023-08-17T06:03:35;5.30;;;3.80;;
13973;SDS011;7060;43.770;4.008;2023-08-17T06:06:04;8.37;;;3.97;;
13973;SDS011;7060;43.770;4.008;2023-08-17T06:08:33;4.47;;;3.90;;
13973;SDS011;7060;43.770;4.008;2023-08-17T06:11:03;7.17;;;4.03;;
13973;SDS011;7060;43.770;4.008;2023-08-17T06:13:32;7.63;;;4.20;;
13973;SDS011;7060;43.770;4.008;2023-08-17T06:16:02;5.47;;;4.13;;
13973;SDS011;7060;43.770;4.008;2023-08-17T06:18:32;14.77;;;4.67;;
13973;SDS011;7060;43.770;4.008;2023-08-17T06:21:01;12.77;;;4.20;;
13973;SDS011;7060;43.770;4.008;2023-08-17T06:23:30;11.53;;;3.93;;
13973;SDS011;7060;43.770;4.008;2023-08-17T06:25:59;6.30;;;4.00;;
13973;SDS011;7060;43.770;4.008;2023-08-17T06:28:28;6.20;;;4.07;;
13973;SDS011;7060;43.770;4.008;2023-08-17T06:30:57;12.90;;;5.33;;
13973;SDS011;7060;43.770;4.008;2023-08-17T06:33:25;12.80;;;5.20;;
13973;SDS011;7060;43.770;4.008;2023-08-17T06:35:56;5.07;;;4.30;;
13973;SDS011;7060;43.770;4.008;2023-08-17T06:38:24;6.90;;;4.70;;
13973;SDS011;7060;43.770;4.008;2023-08-17T06:40:53;6.23;;;4.00;;
13973;SDS011;7060;43.770;4.008;2023-08-17T06:43:22;5.33;;;4.23;;
13973;SDS011;7060;43.770;4.008;2023-08-17T06:45:51;5.67;;;4.17;;
13973;SDS011;7060;43.770;4.008;2023-08-17T06:48:20;13.50;;;4.70;;
13973;SDS011;7060;43.770;4.008;2023-08-17T06:50:48;6.10;;;4.73;;
13973;SDS011;7060;43.770;4.008;2023-08-17T06:53:18;9.10;;;5.20;;
13973;SDS011;7060;43.770;4.008;2023-08-17T06:55:47;7.90;;;4.67;;
13973;SDS011;7060;43.770;4.008;2023-08-17T06:58:16;9.63;;;5.13;;
13973;SDS011;7060;43.770;4.008;2023-08-17T07:00:45;8.57;;;4.40;;
13973;SDS011;7060;43.770;4.008;2023-08-17T07:03:15;7.67;;;4.67;;
13973;SDS011;7060;43.770;4.008;2023-08-17T07:05:44;9.45;;;4.55;;
13973;SDS011;7060;43.770;4.008;2023-08-17T07:08:13;7.55;;;4.45;;
13973;SDS011;7060;43.770;4.008;2023-08-17T07:10:43;6.28;;;5.32;;
13973;SDS011;7060;43.770;4.008;2023-08-17T07:13:13;7.18;;;3.95;;
13973;SDS011;7060;43.770;4.008;2023-08-17T07:15:42;9.77;;;4.30;;
13973;SDS011;7060;43.770;4.008;2023-08-17T07:18:10;6.18;;;3.47;;
13973;SDS011;7060;43.770;4.008;2023-08-17T07:20:39;6.00;;;3.38;;
13973;SDS011;7060;43.770;4.008;2023-08-17T07:23:08;7.22;;;3.33;;
13973;SDS011;7060;43.770;4.008;2023-08-17T07:25:37;4.45;;;3.58;;
13973;SDS011;7060;43.770;4.008;2023-08-17T07:28:09;6.50;;;4.28;;
13973;SDS011;7060;43.770;4.008;2023-08-17T07:30:38;7.63;;;3.75;;
13973;SDS011;7060;43.770;4.008;2023-08-17T07:33:07;6.53;;;3.70;;
13973;SDS011;7060;43.770;4.008;2023-08-17T07:35:37;3.92;;;3.60;;
13973;SDS011;7060;43.770;4.008;2023-08-17T07:38:07;6.03;;;3.88;;
13973;SDS011;7060;43.770;4.008;2023-08-17T07:40:38;6.00;;;3.72;;
13973;SDS011;7060;43.770;4.008;2023-08-17T07:43:06;6.43;;;3.58;;
13973;SDS011;7060;43.770;4.008;2023-08-17T07:45:37;6.15;;;3.00;;
13973;SDS011;7060;43.770;4.008;2023-08-17T07:48:07;6.78;;;3.03;;
13973;SDS011;7060;43.770;4.008;2023-08-17T07:50:36;11.93;;;4.03;;
13973;SDS011;7060;43.770;4.008;2023-08-17T07:53:05;11.13;;;4.63;;
13973;SDS011;7060;43.770;4.008;2023-08-17T07:55:35;4.82;;;2.95;;
13973;SDS011;7060;43.770;4.008;2023-08-17T07:58:05;2.65;;;2.38;;
13973;SDS011;7060;43.770;4.008;2023-08-17T08:00:35;5.18;;;2.13;;
13973;SDS011;7060;43.770;4.008;2023-08-17T08:03:05;2.92;;;2.15;;
13973;SDS011;7060;43.770;4.008;2023-08-17T08:05:36;2.10;;;1.70;;
13973;SDS011;7060;43.770;4.008;2023-08-17T08:08:05;2.13;;;1.88;;
13973;SDS011;7060;43.770;4.008;2023-08-17T08:10:37;3.67;;;2.30;;
13973;SDS011;7060;43.770;4.008;2023-08-17T08:13:06;2.90;;;2.35;;
13973;SDS011;7060;43.770;4.008;2023-08-17T08:15:36;5.93;;;2.50;;
13973;SDS011;7060;43.770;4.008;2023-08-17T08:18:05;2.80;;;1.58;;
13973;SDS011;7060;43.770;4.008;2023-08-17T08:20:34;2.75;;;2.38;;
13973;SDS011;7060;43.770;4.008;2023-08-17T08:23:04;6.05;;;2.55;;
13973;SDS011;7060;43.770;4.008;2023-08-17T08:25:33;4.30;;;2.38;;
13973;SDS011;7060;43.770;4.008;2023-08-17T08:28:03;2.78;;;2.25;;
13973;SDS011;7060;43.770;4.008;2023-08-17T08:30:32;4.95;;;2.03;;
13973;SDS011;7060;43.770;4.008;2023-08-17T08:33:03;11.15;;;3.05;;
13973;SDS011;7060;43.770;4.008;2023-08-17T08:35:34;2.97;;;2.00;;
13973;SDS011;7060;43.770;4.008;2023-08-17T08:38:03;3.90;;;2.30;;
13973;SDS011;7060;43.770;4.008;2023-08-17T08:40:32;4.07;;;2.53;;
13973;SDS011;7060;43.770;4.008;2023-08-17T08:43:06;4.00;;;2.63;;
13973;SDS011;7060;43.770;4.008;2023-08-17T08:45:36;3.53;;;2.45;;
13973;SDS011;7060;43.770;4.008;2023-08-17T08:48:12;4.07;;;2.30;;
13973;SDS011;7060;43.770;4.008;2023-08-17T08:50:43;3.40;;;2.05;;
13973;SDS011;7060;43.770;4.008;2023-08-17T08:53:15;4.13;;;2.20;;
13973;SDS011;7060;43.770;4.008;2023-08-17T08:55:47;2.90;;;2.60;;
13973;SDS011;7060;43.770;4.008;2023-08-17T08:58:22;3.15;;;2.38;;
13973;SDS011;7060;43.770;4.008;2023-08-17T09:00:53;3.22;;;2.58;;
13973;SDS011;7060;43.770;4.008;2023-08-17T09:03:25;4.25;;;2.60;;
13973;SDS011;7060;43.770;4.008;2023-08-17T09:05:54;6.13;;;3.05;;
13973;SDS011;7060;43.770;4.008;2023-08-17T09:08:26;3.20;;;2.63;;
13973;SDS011;7060;43.770;4.008;2023-08-17T09:10:57;7.63;;;3.05;;
13973;SDS011;7060;43.770;4.008;2023-08-17T09:13:27;5.38;;;2.90;;
13973;SDS011;7060;43.770;4.008;2023-08-17T09:15:58;4.57;;;3.00;;
13973;SDS011;7060;43.770;4.008;2023-08-17T09:18:35;5.75;;;2.65;;
13973;SDS011;7060;43.770;4.008;2023-08-17T09:21:04;4.90;;;2.72;;
13973;SDS011;7060;43.770;4.008;2023-08-17T09:23:34;4.72;;;2.78;;
13973;SDS011;7060;43.770;4.008;2023-08-17T09:26:05;5.60;;;3.25;;
13973;SDS011;7060;43.770;4.008;2023-08-17T09:28:38;4.03;;;2.80;;
13973;SDS011;7060;43.770;4.008;2023-08-17T09:31:09;5.22;;;2.60;;
13973;SDS011;7060;43.770;4.008;2023-08-17T09:33:40;4.80;;;2.42;;
13973;SDS011;7060;43.770;4.008;2023-08-17T09:36:11;4.75;;;2.90;;
13973;SDS011;7060;43.770;4.008;2023-08-17T09:38:42;5.47;;;2.80;;
13973;SDS011;7060;43.770;4.008;2023-08-17T09:41:10;7.53;;;3.15;;
13973;SDS011;7060;43.770;4.008;2023-08-17T09:43:42;5.47;;;2.70;;
13973;SDS011;7060;43.770;4.008;2023-08-17T09:46:10;5.45;;;2.92;;
13973;SDS011;7060;43.770;4.008;2023-08-17T09:48:41;6.88;;;2.85;;
13973;SDS011;7060;43.770;4.008;2023-08-17T09:51:14;5.22;;;2.58;;
13973;SDS011;7060;43.770;4.008;2023-08-17T09:53:43;4.30;;;2.22;;
13973;SDS011;7060;43.770;4.008;2023-08-17T09:56:12;3.22;;;2.42;;
13973;SDS011;7060;43.770;4.008;2023-08-17T09:58:43;7.63;;;2.58;;
13973;SDS011;7060;43.770;4.008;2023-08-17T10:01:12;6.50;;;2.60;;
13973;SDS011;7060;43.770;4.008;2023-08-17T10:03:43;3.72;;;2.08;;
13973;SDS011;7060;43.770;4.008;2023-08-17T10:06:13;4.10;;;2.20;;
13973;SDS011;7060;43.770;4.008;2023-08-17T10:08:52;4.22;;;1.90;;
13973;SDS011;7060;43.770;4.008;2023-08-17T10:11:24;3.00;;;1.92;;
13973;SDS011;7060;43.770;4.008;2023-08-17T10:13:56;4.22;;;1.65;;
13973;SDS011;7060;43.770;4.008;2023-08-17T10:16:32;4.25;;;2.13;;
13973;SDS011;7060;43.770;4.008;2023-08-17T10:19:08;5.43;;;1.98;;
13973;SDS011;7060;43.770;4.008;2023-08-17T10:21:46;5.25;;;2.55;;
13973;SDS011;7060;43.770;4.008;2023-08-17T10:24:21;9.55;;;1.77;;
13973;SDS011;7060;43.770;4.008;2023-08-17T10:26:51;3.83;;;2.03;;
13973;SDS011;7060;43.770;4.008;2023-08-17T10:29:21;4.32;;;2.35;;
13973;SDS011;7060;43.770;4.008;2023-08-17T10:31:51;3.30;;;2.40;;
13973;SDS011;7060;43.770;4.008;2023-08-17T10:34:22;3.45;;;2.05;;
13973;SDS011;7060;43.770;4.008;2023-08-17T10:36:52;2.05;;;1.85;;
13973;SDS011;7060;43.770;4.008;2023-08-17T10:39:25;3.75;;;2.35;;
13973;SDS011;7060;43.770;4.008;2023-08-17T10:41:56;3.60;;;1.95;;
13973;SDS011;7060;43.770;4.008;2023-08-17T10:47:19;10.57;;;2.30;;
13973;SDS011;7060;43.770;4.008;2023-08-17T10:49:51;5.20;;;2.67;;
13973;SDS011;7060;43.770;4.008;2023-08-17T10:52:27;1.90;;;1.58;;
13973;SDS011;7060;43.770;4.008;2023-08-17T10:55:01;3.58;;;2.28;;
13973;SDS011;7060;43.770;4.008;2023-08-17T10:57:32;2.90;;;2.10;;
13973;SDS011;7060;43.770;4.008;2023-08-17T11:00:11;3.05;;;1.70;;
13973;SDS011;7060;43.770;4.008;2023-08-17T11:02:49;2.53;;;1.92;;
13973;SDS011;7060;43.770;4.008;2023-08-17T11:05:39;4.88;;;1.85;;
13973;SDS011;7060;43.770;4.008;2023-08-17T11:08:12;3.17;;;1.73;;
13973;SDS011;7060;43.770;4.008;2023-08-17T11:10:56;2.00;;;1.80;;
13973;SDS011;7060;43.770;4.008;2023-08-17T11:13:29;3.97;;;1.60;;
13973;SDS011;7060;43.770;4.008;2023-08-17T11:16:00;3.65;;;2.15;;
13973;SDS011;7060;43.770;4.008;2023-08-17T11:18:31;2.30;;;2.10;;
13973;SDS011;7060;43.770;4.008;2023-08-17T11:21:01;6.20;;;2.60;;
13973;SDS011;7060;43.770;4.008;2023-08-17T11:23:32;5.38;;;2.20;;
13973;SDS011;7060;43.770;4.008;2023-08-17T11:26:02;7.65;;;2.40;;
13973;SDS011;7060;43.770;4.008;2023-08-17T11:28:31;2.95;;;2.00;;
13973;SDS011;7060;43.770;4.008;2023-08-17T11:31:09;4.78;;;2.00;;
13973;SDS011;7060;43.770;4.008;2023-08-17T11:33:39;5.03;;;2.25;;
13973;SDS011;7060;43.770;4.008;2023-08-17T11:36:10;2.72;;;2.15;;
13973;SDS011;7060;43.770;4.008;2023-08-17T11:38:40;3.47;;;2.28;;
13973;SDS011;7060;43.770;4.008;2023-08-17T11:41:11;5.45;;;2.30;;
13973;SDS011;7060;43.770;4.008;2023-08-17T11:43:46;2.58;;;2.10;;
13973;SDS011;7060;43.770;4.008;2023-08-17T11:46:15;3.55;;;2.50;;
13973;SDS011;7060;43.770;4.008;2023-08-17T11:48:44;2.92;;;2.28;;
13973;SDS011;7060;43.770;4.008;2023-08-17T11:51:14;3.38;;;1.98;;
13973;SDS011;7060;43.770;4.008;2023-08-17T11:53:44;2.67;;;2.17;;
13973;SDS011;7060;43.770;4.008;2023-08-17T11:56:15;2.33;;;2.10;;
13973;SDS011;7060;43.770;4.008;2023-08-17T11:58:45;3.28;;;2.50;;
13973;SDS011;7060;43.770;4.008;2023-08-17T12:01:14;3.55;;;2.15;;
13973;SDS011;7060;43.770;4.008;2023-08-17T12:03:44;2.17;;;1.98;;
13973;SDS011;7060;43.770;4.008;2023-08-17T12:06:15;2.75;;;2.55;;
13973;SDS011;7060;43.770;4.008;2023-08-17T12:08:45;4.07;;;2.40;;
13973;SDS011;7060;43.770;4.008;2023-08-17T12:11:15;4.07;;;2.40;;
13973;SDS011;7060;43.770;4.008;2023-08-17T12:13:48;3.83;;;2.22;;
13973;SDS011;7060;43.770;4.008;2023-08-17T12:16:18;4.38;;;2.03;;
13973;SDS011;7060;43.770;4.008;2023-08-17T12:18:49;4.75;;;2.38;;
13973;SDS011;7060;43.770;4.008;2023-08-17T12:21:20;2.30;;;2.20;;
13973;SDS011;7060;43.770;4.008;2023-08-17T12:23:50;4.03;;;2.33;;
13973;SDS011;7060;43.770;4.008;2023-08-17T12:26:19;3.25;;;2.38;;
13973;SDS011;7060;43.770;4.008;2023-08-17T12:28:48;2.50;;;2.30;;
13973;SDS011;7060;43.770;4.008;2023-08-17T12:31:20;2.60;;;2.15;;
13973;SDS011;7060;43.770;4.008;2023-08-17T12:33:51;5.55;;;2.33;;
13973;SDS011;7060;43.770;4.008;2023-08-17T12:36:21;2.85;;;2.22;;
13973;SDS011;7060;43.770;4.008;2023-08-17T12:38:51;2.53;;;2.17;;
13973;SDS011;7060;43.770;4.008;2023-08-17T12:41:19;3.85;;;2.10;;
13973;SDS011;7060;43.770;4.008;2023-08-17T12:43:48;3.58;;;2.60;;
13973;SDS011;7060;43.770;4.008;2023-08-17T12:46:17;5.30;;;2.75;;
13973;SDS011;7060;43.770;4.008;2023-08-17T12:48:46;2.67;;;1.83;;
13973;SDS011;7060;43.770;4.008;2023-08-17T12:51:15;2.33;;;2.10;;
13973;SDS011;7060;43.770;4.008;2023-08-17T12:53:45;2.15;;;1.80;;
13973;SDS011;7060;43.770;4.008;2023-08-17T12:56:16;2.33;;;2.08;;
13973;SDS011;7060;43.770;4.008;2023-08-17T12:58:44;2.60;;;2.08;;
13973;SDS011;7060;43.770;4.008;2023-08-17T13:01:13;5.13;;;2.35;;
13973;SDS011;7060;43.770;4.008;2023-08-17T13:03:42;3.33;;;2.30;;
13973;SDS011;7060;43.770;4.008;2023-08-17T13:06:11;2.58;;;2.20;;
13973;SDS011;7060;43.770;4.008;2023-08-17T13:08:40;4.18;;;2.13;;
13973;SDS011;7060;43.770;4.008;2023-08-17T13:11:10;2.20;;;2.00;;
13973;SDS011;7060;43.770;4.008;2023-08-17T13:13:39;2.40;;;2.20;;
13973;SDS011;7060;43.770;4.008;2023-08-17T13:16:08;1.95;;;1.85;;
13973;SDS011;7060;43.770;4.008;2023-08-17T13:18:38;3.78;;;2.35;;
13973;SDS011;7060;43.770;4.008;2023-08-17T13:21:07;2.40;;;2.20;;
13973;SDS011;7060;43.770;4.008;2023-08-17T13:23:38;2.35;;;2.15;;
13973;SDS011;7060;43.770;4.008;2023-08-17T13:26:07;5.38;;;2.40;;
13973;SDS011;7060;43.770;4.008;2023-08-17T13:28:37;2.40;;;2.13;;
13973;SDS011;7060;43.770;4.008;2023-08-17T13:31:06;3.92;;;1.90;;
13973;SDS011;7060;43.770;4.008;2023-08-17T13:33:50;2.80;;;2.20;;
13973;SDS011;7060;43.770;4.008;2023-08-17T13:36:19;4.07;;;2.30;;
13973;SDS011;7060;43.770;4.008;2023-08-17T13:38:48;2.47;;;2.28;;
13973;SDS011;7060;43.770;4.008;2023-08-17T13:41:17;2.78;;;2.20;;
13973;SDS011;7060;43.770;4.008;2023-08-17T13:43:47;4.57;;;2.20;;
13973;SDS011;7060;43.770;4.008;2023-08-17T13:46:16;2.70;;;2.50;;
13973;SDS011;7060;43.770;4.008;2023-08-17T13:48:44;3.83;;;2.22;;
13973;SDS011;7060;43.770;4.008;2023-08-17T13:51:13;3.10;;;2.13;;
13973;SDS011;7060;43.770;4.008;2023-08-17T13:53:42;3.35;;;2.22;;
13973;SDS011;7060;43.770;4.008;2023-08-17T13:56:11;2.97;;;1.90;;
13973;SDS011;7060;43.770;4.008;2023-08-17T13:58:40;3.70;;;2.05;;
13973;SDS011;7060;43.770;4.008;2023-08-17T14:01:10;3.20;;;2.08;;
13973;SDS011;7060;43.770;4.008;2023-08-17T14:03:39;3.53;;;2.15;;
13973;SDS011;7060;43.770;4.008;2023-08-17T14:06:09;4.13;;;2.25;;
13973;SDS011;7060;43.770;4.008;2023-08-17T14:08:38;4.03;;;2.17;;
13973;SDS011;7060;43.770;4.008;2023-08-17T14:11:07;2.95;;;2.00;;
13973;SDS011;7060;43.770;4.008;2023-08-17T14:13:36;2.78;;;1.98;;
13973;SDS011;7060;43.770;4.008;2023-08-17T14:16:06;2.33;;;1.80;;
13973;SDS011;7060;43.770;4.008;2023-08-17T14:18:36;3.85;;;1.80;;
13973;SDS011;7060;43.770;4.008;2023-08-17T14:21:05;3.13;;;2.17;;
13973;SDS011;7060;43.770;4.008;2023-08-17T14:23:34;1.88;;;1.70;;
13973;SDS011;7060;43.770;4.008;2023-08-17T14:26:03;2.42;;;1.98;;
13973;SDS011;7060;43.770;4.008;2023-08-17T14:28:33;4.18;;;1.80;;
13973;SDS011;7060;43.770;4.008;2023-08-17T14:31:02;4.03;;;2.00;;
13973;SDS011;7060;43.770;4.008;2023-08-17T14:33:31;3.75;;;2.10;;
13973;SDS011;7060;43.770;4.008;2023-08-17T14:36:02;3.20;;;2.15;;
13973;SDS011;7060;43.770;4.008;2023-08-17T14:38:31;2.25;;;1.60;;
13973;SDS011;7060;43.770;4.008;2023-08-17T14:40:59;2.92;;;2.00;;
13973;SDS011;7060;43.770;4.008;2023-08-17T14:43:31;3.05;;;2.10;;
13973;SDS011;7060;43.770;4.008;2023-08-17T14:46:01;4.70;;;2.45;;
13973;SDS011;7060;43.770;4.008;2023-08-17T14:48:30;2.65;;;2.08;;
13973;SDS011;7060;43.770;4.008;2023-08-17T14:50:59;1.98;;;1.80;;
13973;SDS011;7060;43.770;4.008;2023-08-17T14:53:29;2.45;;;1.75;;
13973;SDS011;7060;43.770;4.008;2023-08-17T14:55:58;5.60;;;2.50;;
13973;SDS011;7060;43.770;4.008;2023-08-17T14:58:27;2.20;;;1.98;;
13973;SDS011;7060;43.770;4.008;2023-08-17T15:00:55;3.63;;;2.28;;
13973;SDS011;7060;43.770;4.008;2023-08-17T15:03:24;5.75;;;2.03;;
13973;SDS011;7060;43.770;4.008;2023-08-17T15:05:55;6.80;;;2.70;;
13973;SDS011;7060;43.770;4.008;2023-08-17T15:08:24;3.00;;;2.10;;
13973;SDS011;7060;43.770;4.008;2023-08-17T15:10:55;2.63;;;1.90;;
13973;SDS011;7060;43.770;4.008;2023-08-17T15:13:28;3.10;;;2.28;;
13973;SDS011;7060;43.770;4.008;2023-08-17T15:15:57;3.58;;;1.70;;
13973;SDS011;7060;43.770;4.008;2023-08-17T15:18:27;2.22;;;1.90;;
13973;SDS011;7060;43.770;4.008;2023-08-17T15:20:56;4.18;;;2.10;;